Hoag, Nebraska
Current Conditions -  °F | °C
As of 2:10 PM on Thursday 30 Oct 2014 (Local Time) from KBIE Reporting Station
Clear Clear  
Wind Chill: 64°   Ceiling: Unl
Heat Index: 64°   Visibility: 10mi
Dew Point: 40°   Wind: 25mph
Humidity: 42%   Direction: 340°NNW
Pressure: 30.1"   Gusts: 30mph
Location:  40.2674°N, 96.7699°W
Report Text: KBIE 301910Z AUTO 34022G26KT 10SM CLR 18/04 A3010 RMK AO2 T01750043
Loading
Personal Weather Stations






























Interactive Weather Map
Tropical Storm Tracking
New forecast layout! Learn more

10-Day Weather Forecast

Advertisements
Track Severe Weather on mobile